createdAt,value
2023-05-24T00:01:10.555Z,23.10
2023-05-24T00:04:16.808Z,23.10
2023-05-24T00:06:47.038Z,23.10
2023-05-24T00:09:14.197Z,23.10
2023-05-24T04:32:52.923Z,22.80
2023-05-24T04:35:20.500Z,22.80
2023-05-24T04:37:50.240Z,22.80
2023-05-24T04:44:26.393Z,22.90
2023-05-24T05:20:57.434Z,22.80
2023-05-24T05:23:24.419Z,22.80
2023-05-24T05:25:51.570Z,22.70
2023-05-24T05:28:18.686Z,22.70
2023-05-24T05:38:15.658Z,22.70
2023-05-24T05:40:43.089Z,22.70
2023-05-24T05:58:46.317Z,22.70
2023-05-24T06:01:37.519Z,22.70
2023-05-24T07:56:44.781Z,23.20
2023-05-24T07:59:11.707Z,23.20
2023-05-24T08:01:38.937Z,23.20
2023-05-24T08:04:42.320Z,23.30
2023-05-24T08:07:52.562Z,23.30
2023-05-24T08:11:10.376Z,23.40
2023-05-24T08:13:38.761Z,23.30
2023-05-24T08:16:05.905Z,23.40
2023-05-24T08:18:33.367Z,23.40
2023-05-24T08:21:00.308Z,23.40
2023-05-24T08:23:30.038Z,23.40
2023-05-24T09:36:03.958Z,23.20
2023-05-24T09:38:50.262Z,23.20
2023-05-24T09:41:23.452Z,23.20
2023-05-24T09:43:57.783Z,23.20
2023-05-24T09:46:27.301Z,23.20
2023-05-24T09:49:13.394Z,23.20
2023-05-24T10:33:05.544Z,23.20
2023-05-24T10:35:41.600Z,23.20
2023-05-24T10:38:24.301Z,23.20
2023-05-24T10:41:20.026Z,23.20
2023-05-24T10:44:07.842Z,23.20
2023-05-24T10:46:46.496Z,23.20
2023-05-24T10:49:19.359Z,23.20
2023-05-24T10:51:46.457Z,23.20
2023-05-24T10:54:17.692Z,23.20
2023-05-24T10:57:11.272Z,23.20
2023-05-24T10:59:40.701Z,23.20
2023-05-24T11:02:22.512Z,23.30
2023-05-24T11:05:34.303Z,23.20
2023-05-24T11:08:15.468Z,23.30
2023-05-24T11:11:14.992Z,23.20
2023-05-24T11:13:57.994Z,23.20
2023-05-24T11:16:40.823Z,23.30
2023-05-24T11:19:55.727Z,23.30
2023-05-24T12:22:29.316Z,23.50
2023-05-24T12:25:26.222Z,23.50
2023-05-24T12:36:21.532Z,23.50
2023-05-24T12:39:40.218Z,23.50
2023-05-24T12:45:30.279Z,23.50
2023-05-24T12:48:03.103Z,23.50
2023-05-24T12:50:30.696Z,23.50
2023-05-24T12:52:57.864Z,23.60
2023-05-24T12:55:26.442Z,23.50
2023-05-24T12:57:54.637Z,23.60
2023-05-24T13:00:22.992Z,23.50
2023-05-24T13:02:53.054Z,23.60
2023-05-24T13:05:20.323Z,23.60
2023-05-24T13:07:47.279Z,23.60
2023-05-24T13:10:14.295Z,23.60
2023-05-24T13:12:42.008Z,23.60
2023-05-24T13:15:09.789Z,23.60
2023-05-24T13:17:36.748Z,23.60
2023-05-24T13:26:39.293Z,23.60
2023-05-24T13:32:44.647Z,23.60
2023-05-24T13:35:11.726Z,23.70
2023-05-24T13:37:38.962Z,23.60
2023-05-24T13:40:06.519Z,23.70
2023-05-24T13:42:33.901Z,23.60
2023-05-24T13:45:01.148Z,23.60
2023-05-24T13:47:39.286Z,23.60
2023-05-24T13:50:07.869Z,23.70
2023-05-24T13:57:15.352Z,23.60
2023-05-24T13:59:27.402Z,23.70
2023-05-24T14:01:54.732Z,23.70
2023-05-24T14:04:21.803Z,23.70
2023-05-24T14:06:49.211Z,23.70
2023-05-24T14:09:16.197Z,23.70
2023-05-24T14:24:38.303Z,23.70
2023-05-24T14:27:07.664Z,23.70
2023-05-24T14:29:55.791Z,23.70
2023-05-24T14:36:31.636Z,23.70
2023-05-24T14:42:58.209Z,23.70
2023-05-24T14:45:25.962Z,23.70
2023-05-24T14:47:52.907Z,23.70
2023-05-24T14:50:20.054Z,23.70
2023-05-24T14:52:47.189Z,23.70
2023-05-24T14:55:14.794Z,23.80
2023-05-24T14:57:42.042Z,23.70
2023-05-24T15:00:10.739Z,23.80
2023-05-24T15:12:02.886Z,23.70
2023-05-24T15:25:37.347Z,23.80
2023-05-24T15:28:30.202Z,23.80
2023-05-24T15:30:57.514Z,23.80
2023-05-24T15:33:40.869Z,23.80
2023-05-24T15:36:17.910Z,23.80
2023-05-24T15:42:06.400Z,23.80
2023-05-24T15:57:39.840Z,23.80
2023-05-24T16:00:27.141Z,23.80
2023-05-24T16:03:04.121Z,23.80
2023-05-24T16:05:31.337Z,23.80
2023-05-24T16:15:30.141Z,23.80
2023-05-24T16:17:57.258Z,23.80
2023-05-24T17:21:27.772Z,23.80
2023-05-24T17:27:19.944Z,23.80
2023-05-24T17:29:49.305Z,23.80
2023-05-24T17:32:16.334Z,23.80
2023-05-24T22:15:34.392Z,23.50
2023-05-24T22:18:01.690Z,23.50
2023-05-24T22:20:30.637Z,23.40
2023-05-24T22:23:10.093Z,23.40
2023-05-24T22:25:43.135Z,23.40
2023-05-24T22:28:10.487Z,23.40
2023-05-24T22:30:44.819Z,23.40
2023-05-24T22:33:13.848Z,23.40
2023-05-24T22:35:41.115Z,23.40
2023-05-24T22:38:08.281Z,23.40
2023-05-24T22:40:37.140Z,23.40
2023-05-24T22:43:04.309Z,23.40
2023-05-24T22:45:31.309Z,23.40
2023-05-24T22:47:59.245Z,23.40
2023-05-24T22:50:27.084Z,23.40
2023-05-24T22:52:56.994Z,23.40
2023-05-24T22:55:24.098Z,23.40
2023-05-24T22:57:51.015Z,23.40
2023-05-24T23:00:18.912Z,23.40
2023-05-24T23:02:46.918Z,23.40
2023-05-24T23:05:14.000Z,23.40
2023-05-24T23:07:41.146Z,23.40
2023-05-24T23:12:52.437Z,23.40
2023-05-24T23:15:19.906Z,23.40
2023-05-24T23:17:47.215Z,23.40
2023-05-24T23:20:14.605Z,23.40
2023-05-24T23:22:41.644Z,23.40
2023-05-24T23:25:08.975Z,23.40
2023-05-24T23:27:36.040Z,23.40
2023-05-24T23:30:11.563Z,23.40
2023-05-24T23:32:39.096Z,23.40
2023-05-24T23:35:06.331Z,23.40
2023-05-24T23:37:33.207Z,23.40
2023-05-24T23:40:02.501Z,23.40
2023-05-24T23:42:29.648Z,23.40
2023-05-24T23:44:56.723Z,23.40
2023-05-24T23:47:23.635Z,23.30
2023-05-24T23:49:50.618Z,23.40
2023-05-24T23:52:17.645Z,23.30
2023-05-24T23:54:44.780Z,23.30
2023-05-24T23:57:13.508Z,23.30
2023-05-24T23:59:40.728Z,23.30
